ZXP03 EHRD-EHRD
Flight info
| Callsign | ZXP03 |
|---|---|
| Flight time | 1h 27m |
| Altitude | 1300 |
| Route | VFR DCT |
| Aircraft | EC35/L-ADGILORUVY/LB1 |
Departure
| Time | 2026-05-07 17:54 |
|---|---|
| Airport | Rotterdam The Hague Airport (EHRD) |
Arrival
| Time | 2026-05-07 19:22 |
|---|---|
| Airport | Rotterdam The Hague Airport (EHRD) |
| Time | Latitude | Longitude | Altitude | Speed | Heading |
|---|---|---|---|---|---|
| 2026-05-07 17:43 | 51.95126 | 4.43998 | -11 ft | 0 kts | 306° |
| 2026-05-07 17:52 | 51.95135 | 4.43983 | -2 ft | 4 kts | 297° |
| 2026-05-07 17:52 | 51.95148 | 4.43949 | -2 ft | 4 kts | 290° |
| 2026-05-07 17:53 | 51.95158 | 4.43921 | -1 ft | 1 kts | 279° |
| 2026-05-07 17:53 | 51.95165 | 4.43904 | -1 ft | 1 kts | 264° |
| 2026-05-07 17:53 | 51.95169 | 4.43916 | 22 ft | 8 kts | 242° |
| 2026-05-07 17:53 | 51.95193 | 4.43982 | 165 ft | 9 kts | 233° |
| 2026-05-07 17:54 | 51.95008 | 4.43779 | 367 ft | 66 kts | 182° |
| 2026-05-07 17:54 | 51.94441 | 4.43907 | 579 ft | 92 kts | 166° |
| 2026-05-07 17:54 | 51.93766 | 4.44105 | 758 ft | 101 kts | 164° |
| 2026-05-07 17:54 | 51.93056 | 4.44367 | 925 ft | 105 kts | 162° |
| 2026-05-07 17:55 | 51.92348 | 4.44650 | 1089 ft | 106 kts | 160° |
| 2026-05-07 17:55 | 51.91636 | 4.44993 | 1227 ft | 109 kts | 158° |
| 2026-05-07 17:55 | 51.90904 | 4.45136 | 1383 ft | 101 kts | 192° |
| 2026-05-07 17:55 | 51.90542 | 4.44268 | 1391 ft | 97 kts | 269° |
| 2026-05-07 17:56 | 51.90832 | 4.43309 | 1340 ft | 93 kts | 301° |
| 2026-05-07 17:56 | 51.91168 | 4.42428 | 1293 ft | 93 kts | 289° |
| 2026-05-07 17:56 | 51.91415 | 4.41513 | 1307 ft | 79 kts | 274° |
| 2026-05-07 17:56 | 51.91589 | 4.40768 | 1302 ft | 65 kts | 298° |
| 2026-05-07 17:57 | 51.91954 | 4.40812 | 1174 ft | 72 kts | 40° |
| 2026-05-07 17:57 | 51.92056 | 4.41344 | 1151 ft | 72 kts | 62° |
| 2026-05-07 17:57 | 51.92191 | 4.42203 | 1241 ft | 56 kts | 70° |
| 2026-05-07 17:57 | 51.92161 | 4.42871 | 1228 ft | 57 kts | 82° |
| 2026-05-07 17:58 | 51.92078 | 4.43520 | 1199 ft | 64 kts | 91° |
| 2026-05-07 17:58 | 51.91998 | 4.44265 | 1161 ft | 68 kts | 79° |
| 2026-05-07 17:58 | 51.92036 | 4.45024 | 1163 ft | 66 kts | 69° |
| 2026-05-07 17:58 | 51.92133 | 4.45741 | 1169 ft | 64 kts | 62° |
| 2026-05-07 17:59 | 51.92245 | 4.46424 | 1183 ft | 61 kts | 63° |
| 2026-05-07 17:59 | 51.92309 | 4.47089 | 1204 ft | 58 kts | 72° |
| 2026-05-07 17:59 | 51.92119 | 4.47600 | 1217 ft | 56 kts | 146° |
| 2026-05-07 17:59 | 51.91786 | 4.47332 | 1235 ft | 53 kts | 215° |
| 2026-05-07 18:00 | 51.91608 | 4.46823 | 1272 ft | 51 kts | 225° |
| 2026-05-07 18:00 | 51.91449 | 4.46312 | 1297 ft | 50 kts | 235° |
| 2026-05-07 18:00 | 51.91714 | 4.45965 | 1244 ft | 59 kts | 355° |
| 2026-05-07 18:00 | 51.91837 | 4.46464 | 1214 ft | 62 kts | 112° |
| 2026-05-07 18:01 | 51.91458 | 4.46456 | 1171 ft | 64 kts | 220° |
| 2026-05-07 18:01 | 51.91370 | 4.45824 | 1208 ft | 56 kts | 249° |
| 2026-05-07 18:01 | 51.91299 | 4.45242 | 1248 ft | 50 kts | 236° |
| 2026-05-07 18:01 | 51.91253 | 4.44695 | 1227 ft | 58 kts | 281° |
| 2026-05-07 18:02 | 51.91291 | 4.45670 | 1056 ft | 60 kts | 117° |
| 2026-05-07 18:02 | 51.91044 | 4.46120 | 1139 ft | 51 kts | 116° |
| 2026-05-07 18:02 | 51.90838 | 4.46590 | 1194 ft | 51 kts | 104° |
| 2026-05-07 18:03 | 51.90650 | 4.47112 | 1223 ft | 54 kts | 102° |
| 2026-05-07 18:03 | 51.90501 | 4.47652 | 1278 ft | 52 kts | 92° |
| 2026-05-07 18:03 | 51.90403 | 4.48258 | 1289 ft | 59 kts | 89° |
| 2026-05-07 18:03 | 51.90459 | 4.48876 | 1331 ft | 56 kts | 43° |
| 2026-05-07 18:04 | 51.90815 | 4.49147 | 1310 ft | 63 kts | 346° |
| 2026-05-07 18:04 | 51.91225 | 4.48868 | 1329 ft | 63 kts | 315° |
| 2026-05-07 18:04 | 51.91458 | 4.48327 | 1362 ft | 61 kts | 270° |
| 2026-05-07 18:04 | 51.91492 | 4.47642 | 1400 ft | 58 kts | 264° |
| 2026-05-07 18:05 | 51.91530 | 4.47025 | 1454 ft | 55 kts | 264° |
| 2026-05-07 18:05 | 51.91625 | 4.46379 | 1460 ft | 60 kts | 267° |
| 2026-05-07 18:05 | 51.91697 | 4.45697 | 1439 ft | 68 kts | 283° |
| 2026-05-07 18:05 | 51.91987 | 4.45122 | 1473 ft | 64 kts | 308° |
| 2026-05-07 18:06 | 51.92419 | 4.44815 | 1385 ft | 79 kts | 340° |
| 2026-05-07 18:06 | 51.92945 | 4.44865 | 1357 ft | 78 kts | 15° |
| 2026-05-07 18:06 | 51.93377 | 4.45328 | 1388 ft | 72 kts | 28° |
| 2026-05-07 18:06 | 51.93689 | 4.45922 | 1447 ft | 65 kts | 37° |
| 2026-05-07 18:07 | 51.94077 | 4.46121 | 1479 ft | 73 kts | 334° |
| 2026-05-07 18:07 | 51.94595 | 4.45513 | 1510 ft | 105 kts | 316° |
| 2026-05-07 18:07 | 51.95233 | 4.44722 | 1539 ft | 122 kts | 319° |
| 2026-05-07 18:07 | 51.95939 | 4.43905 | 1534 ft | 128 kts | 321° |
| 2026-05-07 18:08 | 51.96685 | 4.43063 | 1552 ft | 131 kts | 321° |
| 2026-05-07 18:08 | 51.97339 | 4.42058 | 1477 ft | 139 kts | 305° |
| 2026-05-07 18:08 | 51.97879 | 4.40801 | 1507 ft | 131 kts | 300° |
| 2026-05-07 18:08 | 51.98363 | 4.39527 | 1445 ft | 136 kts | 295° |
| 2026-05-07 18:09 | 51.98821 | 4.38244 | 1508 ft | 131 kts | 297° |
| 2026-05-07 18:09 | 51.99282 | 4.36926 | 1429 ft | 135 kts | 294° |
| 2026-05-07 18:09 | 51.99694 | 4.35557 | 1430 ft | 132 kts | 290° |
| 2026-05-07 18:09 | 52.00083 | 4.34188 | 1445 ft | 131 kts | 291° |
| 2026-05-07 18:10 | 52.00485 | 4.32857 | 1437 ft | 132 kts | 293° |
| 2026-05-07 18:10 | 52.00951 | 4.31572 | 1507 ft | 130 kts | 298° |
| 2026-05-07 18:10 | 52.01448 | 4.30349 | 1503 ft | 133 kts | 300° |
| 2026-05-07 18:10 | 52.01977 | 4.29098 | 1513 ft | 131 kts | 303° |
| 2026-05-07 18:11 | 52.02643 | 4.28535 | 1547 ft | 107 kts | 358° |
| 2026-05-07 18:11 | 52.03042 | 4.28906 | 1490 ft | 96 kts | 49° |
| 2026-05-07 18:11 | 52.02703 | 4.29821 | 1460 ft | 83 kts | 184° |
| 2026-05-07 18:11 | 52.02610 | 4.29123 | 1427 ft | 80 kts | 309° |
| 2026-05-07 18:12 | 52.03053 | 4.28813 | 1448 ft | 62 kts | 352° |
| 2026-05-07 18:12 | 52.03352 | 4.29185 | 1477 ft | 53 kts | 62° |
| 2026-05-07 18:12 | 52.03278 | 4.29731 | 1495 ft | 51 kts | 119° |
| 2026-05-07 18:12 | 52.02985 | 4.29991 | 1505 ft | 47 kts | 165° |
| 2026-05-07 18:13 | 52.02674 | 4.29755 | 1483 ft | 53 kts | 204° |
| 2026-05-07 18:13 | 52.02511 | 4.29227 | 1489 ft | 53 kts | 254° |
| 2026-05-07 18:13 | 52.02699 | 4.28690 | 1457 ft | 61 kts | 310° |
| 2026-05-07 18:13 | 52.03087 | 4.28476 | 1466 ft | 56 kts | 332° |
| 2026-05-07 18:14 | 52.03442 | 4.28509 | 1498 ft | 50 kts | 359° |
| 2026-05-07 18:14 | 52.03722 | 4.28847 | 1501 ft | 51 kts | 32° |
| 2026-05-07 18:14 | 52.03802 | 4.29416 | 1472 ft | 58 kts | 90° |
| 2026-05-07 18:14 | 52.03640 | 4.29971 | 1507 ft | 49 kts | 106° |
| 2026-05-07 18:15 | 52.03286 | 4.30213 | 1433 ft | 62 kts | 154° |
| 2026-05-07 18:15 | 52.02905 | 4.30417 | 1460 ft | 56 kts | 141° |
| 2026-05-07 18:15 | 52.02516 | 4.30753 | 1397 ft | 64 kts | 143° |
| 2026-05-07 18:15 | 52.02104 | 4.30487 | 1285 ft | 75 kts | 228° |
| 2026-05-07 18:16 | 52.01899 | 4.29773 | 1326 ft | 62 kts | 227° |
| 2026-05-07 18:16 | 52.01838 | 4.29185 | 1351 ft | 57 kts | 274° |
| 2026-05-07 18:16 | 52.02284 | 4.28958 | 1140 ft | 84 kts | 354° |
| 2026-05-07 18:16 | 52.02867 | 4.29150 | 1022 ft | 81 kts | 13° |
| 2026-05-07 18:17 | 52.03316 | 4.29665 | 966 ft | 77 kts | 31° |
| 2026-05-07 18:17 | 52.03676 | 4.30155 | 1031 ft | 62 kts | 35° |
| 2026-05-07 18:17 | 52.03881 | 4.30803 | 971 ft | 70 kts | 58° |
| 2026-05-07 18:17 | 52.03849 | 4.31550 | 974 ft | 65 kts | 103° |
| 2026-05-07 18:18 | 52.03553 | 4.32091 | 991 ft | 62 kts | 146° |
| 2026-05-07 18:18 | 52.03136 | 4.32138 | 1158 ft | 67 kts | 181° |
| 2026-05-07 18:18 | 52.02628 | 4.32186 | 1321 ft | 85 kts | 157° |
| 2026-05-07 18:18 | 52.02183 | 4.32873 | 1454 ft | 92 kts | 114° |
| 2026-05-07 18:19 | 52.02055 | 4.33934 | 1505 ft | 103 kts | 92° |
| 2026-05-07 18:19 | 52.01979 | 4.35177 | 1525 ft | 120 kts | 93° |
| 2026-05-07 18:19 | 52.01882 | 4.36588 | 1501 ft | 129 kts | 97° |
| 2026-05-07 18:19 | 52.01723 | 4.38023 | 1492 ft | 133 kts | 98° |
| 2026-05-07 18:20 | 52.01557 | 4.39503 | 1494 ft | 133 kts | 98° |
| 2026-05-07 18:20 | 52.01389 | 4.40998 | 1525 ft | 134 kts | 98° |
| 2026-05-07 18:20 | 52.01219 | 4.42517 | 1490 ft | 140 kts | 98° |
| 2026-05-07 18:20 | 52.01045 | 4.44077 | 1493 ft | 140 kts | 98° |
| 2026-05-07 18:21 | 52.00878 | 4.45613 | 1494 ft | 140 kts | 97° |
| 2026-05-07 18:21 | 52.00751 | 4.47193 | 1493 ft | 140 kts | 95° |
| 2026-05-07 18:21 | 52.00632 | 4.48739 | 1494 ft | 140 kts | 94° |
| 2026-05-07 18:21 | 52.00541 | 4.50313 | 1493 ft | 140 kts | 93° |
| 2026-05-07 18:22 | 52.00452 | 4.51879 | 1493 ft | 139 kts | 93° |
| 2026-05-07 18:22 | 52.00392 | 4.52925 | 1493 ft | 139 kts | 93° |
| 2026-05-07 18:22 | 52.00272 | 4.55022 | 1493 ft | 139 kts | 93° |
| 2026-05-07 18:22 | 52.00183 | 4.56578 | 1493 ft | 139 kts | 93° |
| 2026-05-07 18:23 | 52.00094 | 4.58134 | 1493 ft | 139 kts | 93° |
| 2026-05-07 18:23 | 52.00004 | 4.59710 | 1493 ft | 139 kts | 93° |
| 2026-05-07 18:23 | 51.99914 | 4.61276 | 1493 ft | 139 kts | 93° |
| 2026-05-07 18:23 | 51.99825 | 4.62837 | 1493 ft | 139 kts | 93° |
| 2026-05-07 18:24 | 51.99734 | 4.64416 | 1493 ft | 139 kts | 93° |
| 2026-05-07 18:24 | 51.99645 | 4.65977 | 1493 ft | 139 kts | 94° |
| 2026-05-07 18:24 | 51.99554 | 4.67536 | 1493 ft | 139 kts | 94° |
| 2026-05-07 18:24 | 51.99464 | 4.69113 | 1493 ft | 139 kts | 94° |
| 2026-05-07 18:25 | 51.99373 | 4.70680 | 1493 ft | 139 kts | 94° |
| 2026-05-07 18:25 | 51.99283 | 4.72251 | 1493 ft | 139 kts | 94° |
| 2026-05-07 18:25 | 51.99193 | 4.73803 | 1493 ft | 139 kts | 94° |
| 2026-05-07 18:25 | 51.99102 | 4.75369 | 1493 ft | 139 kts | 94° |
| 2026-05-07 18:26 | 51.99011 | 4.76942 | 1493 ft | 139 kts | 94° |
| 2026-05-07 18:26 | 51.98920 | 4.78507 | 1493 ft | 139 kts | 94° |
| 2026-05-07 18:26 | 51.98830 | 4.80067 | 1493 ft | 139 kts | 94° |
| 2026-05-07 18:26 | 51.98739 | 4.81637 | 1493 ft | 139 kts | 94° |
| 2026-05-07 18:27 | 51.98649 | 4.83192 | 1493 ft | 139 kts | 94° |
| 2026-05-07 18:27 | 51.98557 | 4.84760 | 1493 ft | 139 kts | 94° |
| 2026-05-07 18:27 | 51.98466 | 4.86321 | 1493 ft | 139 kts | 94° |
| 2026-05-07 18:27 | 51.98375 | 4.87890 | 1493 ft | 139 kts | 94° |
| 2026-05-07 18:28 | 51.98283 | 4.89455 | 1493 ft | 139 kts | 94° |
| 2026-05-07 18:28 | 51.98192 | 4.91024 | 1477 ft | 142 kts | 94° |
| 2026-05-07 18:28 | 51.98103 | 4.92626 | 1494 ft | 142 kts | 94° |
| 2026-05-07 18:28 | 51.98015 | 4.94234 | 1493 ft | 143 kts | 94° |
| 2026-05-07 18:29 | 51.98056 | 4.95820 | 1479 ft | 144 kts | 71° |
| 2026-05-07 18:29 | 51.98681 | 4.97046 | 1494 ft | 143 kts | 31° |
| 2026-05-07 18:29 | 51.99643 | 4.97333 | 1494 ft | 144 kts | 351° |
| 2026-05-07 18:29 | 52.00614 | 4.96937 | 1497 ft | 144 kts | 343° |
| 2026-05-07 18:30 | 52.01579 | 4.96509 | 1494 ft | 143 kts | 343° |
| 2026-05-07 18:30 | 52.02528 | 4.96088 | 1493 ft | 143 kts | 343° |
| 2026-05-07 18:30 | 52.03489 | 4.95662 | 1493 ft | 143 kts | 343° |
| 2026-05-07 18:30 | 52.04453 | 4.95233 | 1493 ft | 143 kts | 343° |
| 2026-05-07 18:31 | 52.05419 | 4.94804 | 1493 ft | 143 kts | 343° |
| 2026-05-07 18:31 | 52.06369 | 4.94382 | 1493 ft | 143 kts | 343° |
| 2026-05-07 18:31 | 52.07331 | 4.93954 | 1493 ft | 143 kts | 343° |
| 2026-05-07 18:31 | 52.08278 | 4.93459 | 1489 ft | 143 kts | 333° |
| 2026-05-07 18:32 | 52.09165 | 4.92698 | 1494 ft | 143 kts | 330° |
| 2026-05-07 18:32 | 52.10042 | 4.91931 | 1494 ft | 143 kts | 330° |
| 2026-05-07 18:32 | 52.10913 | 4.91168 | 1493 ft | 143 kts | 330° |
| 2026-05-07 18:32 | 52.11787 | 4.90402 | 1493 ft | 143 kts | 330° |
| 2026-05-07 18:33 | 52.12661 | 4.89637 | 1493 ft | 143 kts | 330° |
| 2026-05-07 18:33 | 52.13541 | 4.88866 | 1493 ft | 143 kts | 330° |
| 2026-05-07 18:33 | 52.14412 | 4.88103 | 1477 ft | 142 kts | 330° |
| 2026-05-07 18:33 | 52.15276 | 4.87348 | 1491 ft | 140 kts | 330° |
| 2026-05-07 18:34 | 52.16137 | 4.86594 | 1489 ft | 140 kts | 330° |
| 2026-05-07 18:34 | 52.17006 | 4.85888 | 1481 ft | 141 kts | 337° |
| 2026-05-07 18:34 | 52.17928 | 4.85353 | 1451 ft | 142 kts | 339° |
| 2026-05-07 18:34 | 52.18870 | 4.84802 | 1321 ft | 145 kts | 338° |
| 2026-05-07 18:35 | 52.19817 | 4.84234 | 1198 ft | 146 kts | 338° |
| 2026-05-07 18:35 | 52.20781 | 4.83655 | 1074 ft | 146 kts | 338° |
| 2026-05-07 18:35 | 52.21720 | 4.83089 | 1000 ft | 143 kts | 338° |
| 2026-05-07 18:35 | 52.22641 | 4.82507 | 994 ft | 141 kts | 337° |
| 2026-05-07 18:36 | 52.23547 | 4.81925 | 994 ft | 140 kts | 336° |
| 2026-05-07 18:36 | 52.24464 | 4.81353 | 985 ft | 140 kts | 342° |
| 2026-05-07 18:36 | 52.25403 | 4.80961 | 991 ft | 140 kts | 346° |
| 2026-05-07 18:36 | 52.26355 | 4.80642 | 993 ft | 140 kts | 347° |
| 2026-05-07 18:37 | 52.27309 | 4.80332 | 993 ft | 140 kts | 347° |
| 2026-05-07 18:37 | 52.28260 | 4.80022 | 993 ft | 140 kts | 347° |
| 2026-05-07 18:37 | 52.29212 | 4.79712 | 993 ft | 140 kts | 347° |
| 2026-05-07 18:37 | 52.30136 | 4.79272 | 978 ft | 141 kts | 329° |
| 2026-05-07 18:38 | 52.30806 | 4.78136 | 1007 ft | 139 kts | 303° |
| 2026-05-07 18:38 | 52.31296 | 4.76773 | 1000 ft | 140 kts | 295° |
| 2026-05-07 18:38 | 52.31721 | 4.75345 | 993 ft | 140 kts | 295° |
| 2026-05-07 18:38 | 52.32147 | 4.73911 | 993 ft | 140 kts | 295° |
| 2026-05-07 18:39 | 52.32570 | 4.72484 | 993 ft | 140 kts | 295° |
| 2026-05-07 18:39 | 52.33049 | 4.71095 | 980 ft | 140 kts | 305° |
| 2026-05-07 18:39 | 52.33804 | 4.70094 | 1001 ft | 138 kts | 323° |
| 2026-05-07 18:39 | 52.34591 | 4.69204 | 988 ft | 140 kts | 327° |
| 2026-05-07 18:40 | 52.35472 | 4.68491 | 992 ft | 139 kts | 332° |
| 2026-05-07 18:40 | 52.36337 | 4.67829 | 990 ft | 134 kts | 333° |
| 2026-05-07 18:40 | 52.37174 | 4.67189 | 991 ft | 133 kts | 333° |
| 2026-05-07 18:40 | 52.38012 | 4.66531 | 1016 ft | 132 kts | 327° |
| 2026-05-07 18:41 | 52.38734 | 4.65627 | 966 ft | 131 kts | 302° |
| 2026-05-07 18:41 | 52.39252 | 4.64642 | 1018 ft | 97 kts | 324° |
| 2026-05-07 18:41 | 52.39776 | 4.64711 | 1048 ft | 72 kts | 55° |
| 2026-05-07 18:41 | 52.39590 | 4.65332 | 999 ft | 67 kts | 161° |
| 2026-05-07 18:42 | 52.39218 | 4.65129 | 1002 ft | 54 kts | 237° |
| 2026-05-07 18:42 | 52.39260 | 4.64594 | 1011 ft | 48 kts | 324° |
| 2026-05-07 18:42 | 52.39515 | 4.64500 | 1047 ft | 34 kts | 17° |
| 2026-05-07 18:42 | 52.39733 | 4.64666 | 1050 ft | 35 kts | 29° |
| 2026-05-07 18:43 | 52.39891 | 4.64916 | 1024 ft | 28 kts | 75° |
| 2026-05-07 18:43 | 52.39857 | 4.65167 | 1029 ft | 23 kts | 146° |
| 2026-05-07 18:43 | 52.39708 | 4.65272 | 1084 ft | 25 kts | 173° |
| 2026-05-07 18:43 | 52.39504 | 4.65288 | 1054 ft | 32 kts | 176° |
| 2026-05-07 18:44 | 52.39262 | 4.65191 | 1033 ft | 37 kts | 205° |
| 2026-05-07 18:44 | 52.39166 | 4.64781 | 981 ft | 48 kts | 272° |
| 2026-05-07 18:44 | 52.39346 | 4.64406 | 1035 ft | 43 kts | 338° |
| 2026-05-07 18:44 | 52.39664 | 4.64470 | 1042 ft | 50 kts | 8° |
| 2026-05-07 18:45 | 52.39949 | 4.64826 | 1081 ft | 51 kts | 66° |
| 2026-05-07 18:45 | 52.39859 | 4.65399 | 1129 ft | 51 kts | 123° |
| 2026-05-07 18:45 | 52.39559 | 4.65442 | 1095 ft | 42 kts | 178° |
| 2026-05-07 18:45 | 52.39269 | 4.65354 | 1013 ft | 49 kts | 163° |
| 2026-05-07 18:46 | 52.39040 | 4.65002 | 965 ft | 60 kts | 271° |
| 2026-05-07 18:46 | 52.39296 | 4.64590 | 1011 ft | 56 kts | 350° |
| 2026-05-07 18:46 | 52.39679 | 4.64633 | 1028 ft | 52 kts | 353° |
| 2026-05-07 18:46 | 52.40025 | 4.64724 | 1041 ft | 49 kts | 6° |
| 2026-05-07 18:47 | 52.40173 | 4.65172 | 991 ft | 56 kts | 89° |
| 2026-05-07 18:47 | 52.39914 | 4.65524 | 994 ft | 52 kts | 169° |
| 2026-05-07 18:47 | 52.39555 | 4.65426 | 986 ft | 53 kts | 176° |
| 2026-05-07 18:47 | 52.39164 | 4.65296 | 921 ft | 65 kts | 203° |
| 2026-05-07 18:48 | 52.39265 | 4.64779 | 935 ft | 49 kts | 338° |
| 2026-05-07 18:48 | 52.39593 | 4.64820 | 943 ft | 46 kts | 345° |
| 2026-05-07 18:48 | 52.39919 | 4.64822 | 940 ft | 44 kts | 346° |
| 2026-05-07 18:48 | 52.40191 | 4.64989 | 849 ft | 63 kts | 65° |
| 2026-05-07 18:49 | 52.39864 | 4.65417 | 976 ft | 62 kts | 166° |
| 2026-05-07 18:49 | 52.39449 | 4.65356 | 980 ft | 63 kts | 168° |
| 2026-05-07 18:49 | 52.39051 | 4.65195 | 940 ft | 59 kts | 237° |
| 2026-05-07 18:49 | 52.39240 | 4.64842 | 869 ft | 55 kts | 356° |
| 2026-05-07 18:50 | 52.39618 | 4.64942 | 879 ft | 55 kts | 0° |
| 2026-05-07 18:50 | 52.39963 | 4.65094 | 970 ft | 47 kts | 17° |
| 2026-05-07 18:50 | 52.39993 | 4.65523 | 1022 ft | 46 kts | 141° |
| 2026-05-07 18:50 | 52.39706 | 4.65573 | 1078 ft | 46 kts | 189° |
| 2026-05-07 18:51 | 52.39379 | 4.65394 | 1118 ft | 54 kts | 180° |
| 2026-05-07 18:51 | 52.39062 | 4.64926 | 1076 ft | 69 kts | 276° |
| 2026-05-07 18:51 | 52.39475 | 4.64666 | 1065 ft | 71 kts | 12° |
| 2026-05-07 18:51 | 52.39926 | 4.64920 | 1103 ft | 62 kts | 26° |
| 2026-05-07 18:52 | 52.39842 | 4.65323 | 1014 ft | 77 kts | 178° |
| 2026-05-07 18:52 | 52.39226 | 4.65216 | 1011 ft | 96 kts | 183° |
| 2026-05-07 18:52 | 52.38553 | 4.65043 | 1073 ft | 98 kts | 185° |
| 2026-05-07 18:52 | 52.37836 | 4.65065 | 1007 ft | 115 kts | 165° |
| 2026-05-07 18:53 | 52.37041 | 4.65542 | 977 ft | 125 kts | 147° |
| 2026-05-07 18:53 | 52.36352 | 4.66447 | 958 ft | 127 kts | 133° |
| 2026-05-07 18:53 | 52.35717 | 4.67478 | 924 ft | 128 kts | 133° |
| 2026-05-07 18:53 | 52.35077 | 4.68438 | 997 ft | 124 kts | 137° |
| 2026-05-07 18:54 | 52.34428 | 4.69376 | 1036 ft | 125 kts | 133° |
| 2026-05-07 18:54 | 52.33822 | 4.70423 | 1087 ft | 124 kts | 129° |
| 2026-05-07 18:54 | 52.33203 | 4.71384 | 1121 ft | 125 kts | 134° |
| 2026-05-07 18:54 | 52.32568 | 4.72419 | 1002 ft | 134 kts | 128° |
| 2026-05-07 18:55 | 52.31954 | 4.73540 | 928 ft | 133 kts | 127° |
| 2026-05-07 18:55 | 52.31326 | 4.74688 | 793 ft | 140 kts | 135° |
| 2026-05-07 18:55 | 52.30467 | 4.75464 | 703 ft | 140 kts | 153° |
| 2026-05-07 18:55 | 52.29597 | 4.76036 | 888 ft | 129 kts | 155° |
| 2026-05-07 18:56 | 52.28800 | 4.76775 | 879 ft | 137 kts | 143° |
| 2026-05-07 18:56 | 52.28040 | 4.77734 | 916 ft | 134 kts | 132° |
| 2026-05-07 18:56 | 52.27452 | 4.78998 | 695 ft | 145 kts | 125° |
| 2026-05-07 18:56 | 52.26915 | 4.80261 | 846 ft | 132 kts | 119° |
| 2026-05-07 18:57 | 52.26459 | 4.81552 | 968 ft | 130 kts | 118° |
| 2026-05-07 18:57 | 52.26003 | 4.82851 | 988 ft | 134 kts | 118° |
| 2026-05-07 18:57 | 52.25535 | 4.84183 | 992 ft | 136 kts | 118° |
| 2026-05-07 18:57 | 52.25060 | 4.85534 | 993 ft | 136 kts | 118° |
| 2026-05-07 18:58 | 52.24588 | 4.86877 | 993 ft | 137 kts | 118° |
| 2026-05-07 18:58 | 52.24114 | 4.88223 | 993 ft | 137 kts | 118° |
| 2026-05-07 18:58 | 52.23640 | 4.89569 | 993 ft | 137 kts | 118° |
| 2026-05-07 18:58 | 52.23169 | 4.90908 | 993 ft | 137 kts | 118° |
| 2026-05-07 18:59 | 52.22669 | 4.92227 | 976 ft | 138 kts | 127° |
| 2026-05-07 18:59 | 52.22046 | 4.93384 | 995 ft | 136 kts | 130° |
| 2026-05-07 18:59 | 52.21386 | 4.94496 | 965 ft | 138 kts | 142° |
| 2026-05-07 18:59 | 52.20560 | 4.95281 | 997 ft | 135 kts | 149° |
| 2026-05-07 19:00 | 52.19732 | 4.96039 | 993 ft | 136 kts | 149° |
| 2026-05-07 19:00 | 52.18893 | 4.96756 | 987 ft | 137 kts | 153° |
| 2026-05-07 19:00 | 52.18002 | 4.97266 | 972 ft | 138 kts | 168° |
| 2026-05-07 19:00 | 52.17051 | 4.97406 | 997 ft | 136 kts | 174° |
| 2026-05-07 19:01 | 52.16099 | 4.97356 | 980 ft | 137 kts | 186° |
| 2026-05-07 19:01 | 52.15169 | 4.97128 | 991 ft | 136 kts | 187° |
| 2026-05-07 19:01 | 52.14220 | 4.97032 | 989 ft | 137 kts | 172° |
| 2026-05-07 19:01 | 52.13319 | 4.97453 | 996 ft | 137 kts | 153° |
| 2026-05-07 19:02 | 52.12539 | 4.98329 | 999 ft | 136 kts | 135° |
| 2026-05-07 19:02 | 52.11856 | 4.99399 | 990 ft | 137 kts | 135° |
| 2026-05-07 19:02 | 52.11008 | 5.00103 | 951 ft | 139 kts | 168° |
| 2026-05-07 19:02 | 52.10063 | 5.00252 | 1006 ft | 134 kts | 165° |
| 2026-05-07 19:03 | 52.09156 | 5.00697 | 993 ft | 136 kts | 161° |
| 2026-05-07 19:03 | 52.08234 | 5.00940 | 943 ft | 140 kts | 186° |
| 2026-05-07 19:03 | 52.07433 | 5.00149 | 997 ft | 135 kts | 230° |
| 2026-05-07 19:03 | 52.07058 | 4.98771 | 1111 ft | 131 kts | 241° |
| 2026-05-07 19:04 | 52.06605 | 4.97498 | 1247 ft | 129 kts | 238° |
| 2026-05-07 19:04 | 52.06156 | 4.96255 | 1373 ft | 129 kts | 238° |
| 2026-05-07 19:04 | 52.05699 | 4.94991 | 1480 ft | 130 kts | 238° |
| 2026-05-07 19:04 | 52.05228 | 4.93690 | 1490 ft | 135 kts | 238° |
| 2026-05-07 19:05 | 52.04752 | 4.92371 | 1492 ft | 136 kts | 238° |
| 2026-05-07 19:05 | 52.04269 | 4.91036 | 1493 ft | 136 kts | 238° |
| 2026-05-07 19:05 | 52.03791 | 4.89712 | 1493 ft | 137 kts | 238° |
| 2026-05-07 19:05 | 52.03311 | 4.88385 | 1493 ft | 137 kts | 238° |
| 2026-05-07 19:06 | 52.02829 | 4.87051 | 1493 ft | 137 kts | 238° |
| 2026-05-07 19:06 | 52.01870 | 4.84399 | 1493 ft | 137 kts | 238° |
| 2026-05-07 19:06 | 52.01386 | 4.83063 | 1493 ft | 137 kts | 238° |
| 2026-05-07 19:07 | 52.00902 | 4.81727 | 1493 ft | 137 kts | 238° |
| 2026-05-07 19:07 | 52.00420 | 4.80396 | 1493 ft | 137 kts | 238° |
| 2026-05-07 19:07 | 51.99942 | 4.79075 | 1493 ft | 137 kts | 238° |
| 2026-05-07 19:07 | 51.99461 | 4.77746 | 1493 ft | 137 kts | 238° |
| 2026-05-07 19:08 | 51.98977 | 4.76411 | 1493 ft | 137 kts | 238° |
| 2026-05-07 19:08 | 51.98496 | 4.75084 | 1493 ft | 137 kts | 238° |
| 2026-05-07 19:08 | 51.98015 | 4.73757 | 1493 ft | 137 kts | 238° |
| 2026-05-07 19:08 | 51.97538 | 4.72444 | 1588 ft | 132 kts | 238° |
| 2026-05-07 19:09 | 51.97078 | 4.71176 | 1715 ft | 130 kts | 238° |
| 2026-05-07 19:09 | 51.96625 | 4.69929 | 1841 ft | 129 kts | 238° |
| 2026-05-07 19:09 | 51.96169 | 4.68675 | 1964 ft | 129 kts | 238° |
| 2026-05-07 19:09 | 51.95697 | 4.67381 | 1988 ft | 134 kts | 238° |
| 2026-05-07 19:10 | 51.95221 | 4.66071 | 1992 ft | 136 kts | 238° |
| 2026-05-07 19:10 | 51.94744 | 4.64758 | 1993 ft | 137 kts | 238° |
| 2026-05-07 19:10 | 51.94256 | 4.63417 | 1993 ft | 137 kts | 238° |
| 2026-05-07 19:10 | 51.93778 | 4.62100 | 1993 ft | 137 kts | 238° |
| 2026-05-07 19:11 | 51.93290 | 4.60760 | 1993 ft | 137 kts | 238° |
| 2026-05-07 19:11 | 51.92769 | 4.59483 | 1996 ft | 137 kts | 233° |
| 2026-05-07 19:11 | 51.92219 | 4.58233 | 1993 ft | 137 kts | 233° |
| 2026-05-07 19:11 | 51.91663 | 4.56973 | 1993 ft | 137 kts | 233° |
| 2026-05-07 19:12 | 51.91108 | 4.55713 | 1993 ft | 137 kts | 233° |
| 2026-05-07 19:12 | 51.90554 | 4.54458 | 1993 ft | 137 kts | 233° |
| 2026-05-07 19:12 | 51.90007 | 4.53218 | 1993 ft | 137 kts | 233° |
| 2026-05-07 19:12 | 51.89449 | 4.51951 | 1993 ft | 137 kts | 233° |
| 2026-05-07 19:13 | 51.88895 | 4.50696 | 1993 ft | 137 kts | 233° |
| 2026-05-07 19:13 | 51.88348 | 4.49457 | 1993 ft | 137 kts | 233° |
| 2026-05-07 19:13 | 51.87796 | 4.48207 | 1993 ft | 137 kts | 233° |
| 2026-05-07 19:13 | 51.87241 | 4.46952 | 1993 ft | 137 kts | 233° |
| 2026-05-07 19:14 | 51.86690 | 4.45704 | 1993 ft | 137 kts | 233° |
| 2026-05-07 19:14 | 51.86138 | 4.44456 | 1993 ft | 137 kts | 233° |
| 2026-05-07 19:14 | 51.85582 | 4.43196 | 1993 ft | 137 kts | 233° |
| 2026-05-07 19:14 | 51.85026 | 4.41939 | 1993 ft | 137 kts | 233° |
| 2026-05-07 19:15 | 51.84476 | 4.40695 | 1993 ft | 137 kts | 233° |
| 2026-05-07 19:15 | 51.83926 | 4.39451 | 1993 ft | 137 kts | 233° |
| 2026-05-07 19:15 | 51.83371 | 4.38198 | 1993 ft | 137 kts | 233° |
| 2026-05-07 19:15 | 51.82819 | 4.36950 | 1993 ft | 137 kts | 233° |
| 2026-05-07 19:16 | 51.82266 | 4.35701 | 1993 ft | 137 kts | 233° |
| 2026-05-07 19:16 | 51.81711 | 4.34447 | 1993 ft | 137 kts | 232° |
| 2026-05-07 19:16 | 51.81220 | 4.33132 | 1951 ft | 140 kts | 251° |
| 2026-05-07 19:16 | 51.81348 | 4.31640 | 1955 ft | 137 kts | 297° |
| 2026-05-07 19:17 | 51.82088 | 4.30695 | 1983 ft | 135 kts | 332° |
| 2026-05-07 19:17 | 51.82940 | 4.30043 | 1990 ft | 136 kts | 333° |
| 2026-05-07 19:17 | 51.83801 | 4.29389 | 1993 ft | 136 kts | 333° |
| 2026-05-07 19:17 | 51.84656 | 4.28737 | 1993 ft | 137 kts | 333° |
| 2026-05-07 19:18 | 51.85519 | 4.28080 | 1993 ft | 137 kts | 333° |
| 2026-05-07 19:18 | 51.86375 | 4.27428 | 1984 ft | 137 kts | 333° |
| 2026-05-07 19:18 | 51.87306 | 4.27154 | 1941 ft | 139 kts | 8° |
| 2026-05-07 19:18 | 51.88131 | 4.27874 | 1998 ft | 135 kts | 33° |
| 2026-05-07 19:19 | 51.88914 | 4.28751 | 1991 ft | 136 kts | 33° |
| 2026-05-07 19:19 | 51.89717 | 4.29578 | 1992 ft | 137 kts | 30° |
| 2026-05-07 19:19 | 51.90406 | 4.30632 | 1978 ft | 137 kts | 51° |
| 2026-05-07 19:19 | 51.90867 | 4.31966 | 1930 ft | 140 kts | 60° |
| 2026-05-07 19:20 | 51.91378 | 4.33324 | 1808 ft | 142 kts | 54° |
| 2026-05-07 19:20 | 51.91935 | 4.34667 | 1681 ft | 143 kts | 54° |
| 2026-05-07 19:20 | 51.92475 | 4.36019 | 1559 ft | 143 kts | 55° |
| 2026-05-07 19:20 | 51.93023 | 4.37360 | 1353 ft | 146 kts | 51° |
| 2026-05-07 19:21 | 51.93582 | 4.38672 | 1051 ft | 137 kts | 56° |
| 2026-05-07 19:21 | 51.94069 | 4.39927 | 782 ft | 127 kts | 47° |
| 2026-05-07 19:21 | 51.94523 | 4.41072 | 561 ft | 115 kts | 48° |
| 2026-05-07 19:21 | 51.94915 | 4.42065 | 330 ft | 89 kts | 48° |
| 2026-05-07 19:22 | 51.95192 | 4.42780 | 201 ft | 62 kts | 46° |
| 2026-05-07 19:22 | 51.95388 | 4.43286 | 118 ft | 44 kts | 61° |
| 2026-05-07 19:22 | 51.95348 | 4.43641 | 42 ft | 22 kts | 136° |
| 2026-05-07 19:22 | 51.95221 | 4.43801 | 16 ft | 24 kts | 134° |
| 2026-05-07 19:23 | 51.95150 | 4.43981 | -9 ft | 8 kts | 144° |
| 2026-05-07 19:23 | 51.95134 | 4.44005 | -7 ft | 1 kts | 243° |
| 2026-05-07 19:23 | 51.95130 | 4.44007 | -11 ft | 0 kts | 269° |